Time;durP1;ratioP1;P1;durP2;ratioP2;P2;SDS_P1;SDS_P2;PMS_P1;PMS_P2;Temp;Humidity;BMP_temperature;BMP_pressure;BME280_temperature;BME280_humidity;BME280_pressure;Samples;Min_cycle;Max_cycle;Signal;HPM_P1;HPM_P2
2023/09/15 00:01:44;;;;;;;3.50;1.20;;;;;;;12.48;60.74;102033.72;4901854;28;97364;-55
2023/09/15 00:04:11;;;;;;;1.23;1.17;;;;;;;12.44;60.72;102024.88;4900039;28;96619;-55
2023/09/15 00:06:37;;;;;;;1.37;1.27;;;;;;;12.41;60.81;102022.28;4899329;28;96769;-54
2023/09/15 00:09:14;;;;;;;1.43;1.00;;;;;;;12.41;60.70;102028.56;4900541;28;97299;-55
2023/09/15 00:11:42;;;;;;;1.23;1.13;;;;;;;12.39;60.74;102022.75;4901159;28;97090;-54
2023/09/15 00:14:13;;;;;;;0.97;0.80;;;;;;;12.37;60.76;102029.97;4901218;28;97210;-55
2023/09/15 00:16:40;;;;;;;1.10;1.10;;;;;;;12.34;60.72;102030.94;4907111;28;96982;-54
2023/09/15 00:19:06;;;;;;;1.47;1.20;;;;;;;12.33;60.58;102016.38;4900839;28;98921;-55
2023/09/15 00:21:33;;;;;;;0.87;0.87;;;;;;;12.31;60.66;102021.59;4901473;28;97706;-55
2023/09/15 00:24:00;;;;;;;7.40;1.17;;;;;;;12.29;60.54;102024.06;4900904;28;97380;-55
2023/09/15 00:26:25;;;;;;;2.27;1.00;;;;;;;12.26;60.87;102025.00;4901082;28;97122;-55
2023/09/15 00:28:51;;;;;;;0.80;0.80;;;;;;;12.26;60.81;102019.47;4899603;28;97022;-55
2023/09/15 00:31:16;;;;;;;1.17;0.87;;;;;;;12.25;60.70;102020.72;4901528;28;97356;-55
2023/09/15 00:33:41;;;;;;;2.57;0.90;;;;;;;12.25;60.72;102014.44;4901661;28;97320;-54
2023/09/15 00:36:07;;;;;;;1.00;0.90;;;;;;;12.24;60.83;102018.41;4899481;28;104530;-55
2023/09/15 00:38:32;;;;;;;1.37;1.00;;;;;;;12.22;60.97;102020.88;4896038;28;97387;-54
2023/09/15 00:40:58;;;;;;;3.03;0.97;;;;;;;12.21;60.97;102019.38;4900677;28;96794;-55
2023/09/15 00:43:23;;;;;;;0.90;0.90;;;;;;;12.20;60.83;102018.59;4900831;28;97387;-55
2023/09/15 00:45:49;;;;;;;1.10;0.80;;;;;;;12.18;60.82;102015.53;4900987;28;97692;-54
2023/09/15 00:48:15;;;;;;;1.57;0.90;;;;;;;12.17;60.72;102024.28;4899042;28;98035;-54
2023/09/15 00:50:42;;;;;;;2.23;0.90;;;;;;;12.18;60.91;102015.53;4900657;28;97234;-54
2023/09/15 00:53:12;;;;;;;1.63;0.90;;;;;;;12.18;60.85;102017.53;4899732;28;97157;-54
2023/09/15 00:55:40;;;;;;;1.77;1.00;;;;;;;12.18;60.92;102018.31;4898202;28;96794;-54
2023/09/15 00:58:11;;;;;;;2.80;0.90;;;;;;;12.17;60.99;102014.00;4897405;28;97824;-54
2023/09/15 01:00:40;;;;;;;1.73;0.67;;;;;;;12.17;60.95;102010.47;4899146;28;97276;-55
2023/09/15 01:03:07;;;;;;;3.43;1.23;;;;;;;12.15;60.77;102010.97;4898894;28;96602;-54
2023/09/15 01:05:33;;;;;;;1.50;0.90;;;;;;;12.14;60.97;102000.41;4897152;28;97239;-54
2023/09/15 01:07:58;;;;;;;1.33;1.23;;;;;;;12.14;61.13;102005.91;4899586;28;97944;-55
2023/09/15 01:10:27;;;;;;;2.00;0.90;;;;;;;12.13;60.82;102001.63;4896903;28;98295;-55
2023/09/15 01:12:54;;;;;;;4.30;1.10;;;;;;;12.10;61.12;102008.84;4902601;28;97053;-55
2023/09/15 01:15:51;;;;;;;1.03;0.93;;;;;;;12.13;61.01;102004.38;4897835;28;97298;-54
2023/09/15 01:18:47;;;;;;;0.87;0.87;;;;;;;12.09;61.19;102003.78;4900592;28;97303;-54
2023/09/15 01:21:31;;;;;;;2.40;1.20;;;;;;;12.09;61.14;102006.56;4896658;28;97745;-54
2023/09/15 01:24:21;;;;;;;1.30;1.20;;;;;;;12.05;61.30;102003.97;4892871;28;97197;-55
2023/09/15 01:27:08;;;;;;;1.23;1.13;;;;;;;12.04;61.44;101994.16;4900167;28;96930;-55
2023/09/15 01:29:33;;;;;;;2.50;1.10;;;;;;;12.03;61.23;102000.94;4898419;28;97313;-55
2023/09/15 01:32:00;;;;;;;1.30;0.87;;;;;;;12.04;61.06;101994.94;4900204;28;97356;-54
2023/09/15 01:34:25;;;;;;;1.10;1.00;;;;;;;12.04;61.21;102002.44;4896972;28;97067;-55
2023/09/15 01:36:53;;;;;;;0.83;0.83;;;;;;;12.05;61.23;101995.72;4899457;28;99973;-55
2023/09/15 01:39:19;;;;;;;1.10;0.80;;;;;;;12.03;61.04;101998.19;4896673;28;96732;-55
2023/09/15 01:41:44;;;;;;;1.37;0.90;;;;;;;12.01;61.09;102000.66;4897040;28;97314;-54
2023/09/15 01:44:10;;;;;;;1.73;0.80;;;;;;;11.99;61.13;101997.59;4900741;28;101253;-55
2023/09/15 01:46:35;;;;;;;0.80;0.80;;;;;;;11.96;61.08;101999.28;4898420;28;96819;-55
2023/09/15 01:49:01;;;;;;;1.70;0.73;;;;;;;11.95;61.12;101997.75;4898139;28;107785;-55
2023/09/15 01:51:28;;;;;;;1.23;0.90;;;;;;;11.93;60.99;102008.50;4899927;28;97309;-54
2023/09/15 01:53:53;;;;;;;1.00;0.90;;;;;;;11.90;60.97;101987.34;4900755;28;97127;-54
2023/09/15 01:56:20;;;;;;;1.00;0.90;;;;;;;11.83;61.19;101990.47;4900402;28;97403;-55
2023/09/15 01:58:46;;;;;;;1.40;1.00;;;;;;;11.76;61.13;101993.56;4897240;28;97281;-54
2023/09/15 02:01:11;;;;;;;1.40;1.10;;;;;;;11.74;61.45;101992.50;4897440;28;97676;-55
2023/09/15 02:03:37;;;;;;;1.00;0.77;;;;;;;11.72;61.39;101989.47;4899134;28;96556;-54
2023/09/15 02:06:04;;;;;;;1.00;0.90;;;;;;;11.71;61.20;101994.22;4897516;28;97342;-54
2023/09/15 02:08:30;;;;;;;2.83;0.97;;;;;;;11.66;61.30;102008.63;4896438;28;98845;-54
2023/09/15 02:10:56;;;;;;;0.87;0.87;;;;;;;11.63;61.46;101993.00;4898096;28;96892;-54
2023/09/15 02:13:21;;;;;;;0.87;0.87;;;;;;;11.62;61.55;101996.97;4898978;28;96788;-55
2023/09/15 02:15:46;;;;;;;2.50;1.03;;;;;;;11.61;61.58;101980.91;4899026;28;97341;-54
2023/09/15 02:18:12;;;;;;;0.93;0.90;;;;;;;11.62;61.50;101985.19;4899070;28;109223;-54
2023/09/15 02:20:37;;;;;;;0.93;0.93;;;;;;;11.62;61.56;101980.44;4896842;28;97098;-54
2023/09/15 02:23:03;;;;;;;1.43;1.00;;;;;;;11.65;61.67;101984.25;4896508;28;96742;-54
2023/09/15 02:25:33;;;;;;;0.87;0.80;;;;;;;11.68;61.58;101984.13;4899285;28;97165;-54
2023/09/15 02:27:58;;;;;;;0.80;0.80;;;;;;;11.71;61.51;101985.16;4898669;28;97434;-54
2023/09/15 02:30:24;;;;;;;2.43;0.83;;;;;;;11.71;61.50;101980.41;4899161;28;96714;-54
2023/09/15 02:32:49;;;;;;;2.60;0.90;;;;;;;11.72;61.54;101972.91;4897950;28;102335;-54
2023/09/15 02:35:14;;;;;;;0.73;0.73;;;;;;;11.75;61.61;101981.00;4897208;28;97150;-54
2023/09/15 02:37:40;;;;;;;0.90;0.90;;;;;;;11.78;61.58;101976.56;4899333;28;99029;-54
2023/09/15 02:40:07;;;;;;;1.80;0.80;;;;;;;11.80;61.65;101979.59;4897515;28;99263;-54
2023/09/15 02:42:35;;;;;;;0.90;0.80;;;;;;;11.80;61.53;101972.09;4898337;28;96838;-54
2023/09/15 02:45:00;;;;;;;0.70;0.70;;;;;;;11.81;61.56;101981.16;4898073;28;97236;-54
2023/09/15 02:47:28;;;;;;;1.67;0.90;;;;;;;11.83;61.78;101968.41;4897013;28;97136;-54
2023/09/15 02:49:53;;;;;;;1.30;0.70;;;;;;;11.83;61.54;101968.41;4896706;28;97149;-55
2023/09/15 02:52:19;;;;;;;0.87;0.87;;;;;;;11.83;61.61;101962.13;4898390;28;97674;-54
2023/09/15 02:54:47;;;;;;;1.40;0.93;;;;;;;11.82;61.68;101964.13;4899840;28;97398;-54
2023/09/15 02:57:13;;;;;;;2.30;0.83;;;;;;;11.80;61.54;101954.78;4897490;28;97999;-54
2023/09/15 02:59:38;;;;;;;0.97;0.97;;;;;;;11.76;61.78;101960.50;4897517;28;101007;-55
2023/09/15 03:02:03;;;;;;;0.80;0.80;;;;;;;11.78;61.74;101955.25;4896733;28;104447;-55
2023/09/15 03:04:29;;;;;;;0.83;0.83;;;;;;;11.79;62.01;101959.56;4896340;28;102844;-54
2023/09/15 03:06:54;;;;;;;1.27;0.70;;;;;;;11.81;62.06;101959.84;4896255;28;96786;-55
2023/09/15 03:09:20;;;;;;;0.70;0.70;;;;;;;11.84;62.04;101955.38;4900293;28;97119;-54
2023/09/15 03:11:46;;;;;;;1.10;1.00;;;;;;;11.85;62.01;101960.44;4894278;28;96659;-54
2023/09/15 03:14:12;;;;;;;3.73;0.80;;;;;;;11.86;61.93;101955.69;4898804;28;97390;-55
2023/09/15 03:16:41;;;;;;;4.97;0.90;;;;;;;11.85;61.90;101963.19;4897369;28;97616;-55
2023/09/15 03:19:06;;;;;;;1.57;0.77;;;;;;;11.84;61.84;101958.91;4898222;28;97673;-54
2023/09/15 03:21:33;;;;;;;1.00;0.90;;;;;;;11.80;61.85;101963.06;4898942;28;96789;-54
2023/09/15 03:23:59;;;;;;;5.00;1.10;;;;;;;11.75;61.72;101963.72;4900438;28;97345;-54
2023/09/15 03:26:24;;;;;;;0.67;0.67;;;;;;;11.70;61.67;101959.63;4897721;28;97070;-55
2023/09/15 03:28:49;;;;;;;2.67;0.70;;;;;;;11.65;62.00;101962.19;4899784;28;103933;-55
2023/09/15 03:31:15;;;;;;;1.00;0.90;;;;;;;11.60;61.68;101962.84;4894592;28;98155;-54
2023/09/15 03:33:40;;;;;;;1.73;1.17;;;;;;;11.54;61.84;101964.69;4900407;28;100210;-54
2023/09/15 03:36:07;;;;;;;0.80;0.80;;;;;;;11.50;61.78;101956.63;4899567;28;112244;-54
2023/09/15 03:38:33;;;;;;;2.17;1.10;;;;;;;11.47;61.75;101960.28;4899544;28;97420;-55
2023/09/15 03:40:59;;;;;;;1.93;0.87;;;;;;;11.45;61.88;101951.72;4901745;28;97783;-54
2023/09/15 03:43:24;;;;;;;1.00;0.90;;;;;;;11.44;61.96;101943.94;4900198;28;97164;-55
2023/09/15 03:45:51;;;;;;;4.97;0.80;;;;;;;11.42;61.92;101943.66;4899311;28;96991;-54
2023/09/15 03:48:17;;;;;;;0.93;0.93;;;;;;;11.41;61.89;101942.88;4901697;28;97667;-55
2023/09/15 03:50:43;;;;;;;0.90;0.90;;;;;;;11.41;61.94;101947.63;4898722;28;97436;-55
2023/09/15 03:53:09;;;;;;;0.80;0.60;;;;;;;11.41;62.11;101942.88;4900848;28;96885;-54
2023/09/15 03:55:35;;;;;;;1.17;0.93;;;;;;;11.40;61.86;101946.84;4899736;28;97444;-54
2023/09/15 03:58:01;;;;;;;2.70;1.10;;;;;;;11.41;62.11;101937.38;4900404;28;97149;-55
2023/09/15 04:00:27;;;;;;;1.83;0.90;;;;;;;11.40;61.96;101930.31;4902463;28;96643;-54
2023/09/15 04:02:53;;;;;;;2.27;1.03;;;;;;;11.41;61.96;101942.09;4899721;28;97081;-54
2023/09/15 04:05:18;;;;;;;1.63;1.00;;;;;;;11.40;62.09;101940.59;4899400;28;97286;-54
2023/09/15 04:07:44;;;;;;;2.60;1.50;;;;;;;11.38;61.95;101946.56;4899722;28;97140;-54
2023/09/15 04:10:09;;;;;;;1.50;0.90;;;;;;;11.34;61.86;101943.22;4899575;28;97009;-54
2023/09/15 04:12:34;;;;;;;3.97;2.60;;;;;;;11.33;61.97;101925.91;4899288;28;96838;-54
2023/09/15 04:15:00;;;;;;;6.70;3.00;;;;;;;11.29;61.92;101938.34;4901156;28;97968;-54
2023/09/15 04:17:25;;;;;;;7.47;3.60;;;;;;;11.25;61.96;101929.47;4900958;28;97160;-54
2023/09/15 04:19:51;;;;;;;4.77;3.03;;;;;;;11.23;62.07;101932.69;4901110;28;97172;-54
2023/09/15 04:22:16;;;;;;;4.43;2.93;;;;;;;11.23;62.18;101940.19;4900659;28;97113;-54
2023/09/15 04:24:42;;;;;;;6.53;2.43;;;;;;;11.24;62.15;101927.97;4900116;28;96731;-55
2023/09/15 04:27:07;;;;;;;4.03;1.80;;;;;;;11.26;62.26;101933.75;4900471;28;97660;-54
2023/09/15 04:29:32;;;;;;;2.80;1.60;;;;;;;11.26;62.25;101936.50;4900431;28;97213;-54
2023/09/15 04:31:58;;;;;;;1.97;1.40;;;;;;;11.26;62.30;101931.78;4902070;28;97179;-54
2023/09/15 04:34:24;;;;;;;4.70;1.10;;;;;;;11.23;62.47;101937.44;4899906;28;97233;-54
2023/09/15 04:36:50;;;;;;;1.17;1.17;;;;;;;11.26;62.31;101936.50;4899218;28;98623;-54
2023/09/15 04:39:15;;;;;;;0.90;0.60;;;;;;;11.25;62.20;101930.22;4900764;28;97319;-54
2023/09/15 04:41:40;;;;;;;1.17;1.07;;;;;;;11.25;62.32;101930.22;4900620;28;97034;-54
2023/09/15 04:44:06;;;;;;;1.63;0.77;;;;;;;11.24;62.55;101950.00;4897537;28;100131;-54
2023/09/15 04:46:31;;;;;;;1.67;1.00;;;;;;;11.26;62.38;101925.50;4898018;28;96729;-54
2023/09/15 04:48:56;;;;;;;2.33;0.90;;;;;;;11.26;62.38;101928.25;4901361;28;97230;-54
2023/09/15 04:51:22;;;;;;;0.93;0.93;;;;;;;11.23;62.44;101929.94;4902074;28;101589;-54
2023/09/15 04:53:47;;;;;;;0.93;0.93;;;;;;;11.23;62.50;101937.44;4896346;28;97447;-54
2023/09/15 04:56:12;;;;;;;1.10;0.80;;;;;;;11.23;62.55;101937.44;4900213;28;112535;-54
2023/09/15 04:58:37;;;;;;;0.87;0.87;;;;;;;11.22;62.66;101941.44;4899943;28;96610;-55
2023/09/15 05:01:07;;;;;;;1.10;1.10;;;;;;;11.23;62.67;101937.44;4898464;28;106451;-54
2023/09/15 05:03:32;;;;;;;1.00;0.87;;;;;;;11.25;62.61;101952.28;4899465;28;97328;-55
2023/09/15 05:05:59;;;;;;;1.50;0.90;;;;;;;11.28;62.80;101947.84;4900445;28;97244;-54
2023/09/15 05:08:24;;;;;;;1.43;0.93;;;;;;;11.28;62.50;101940.34;4901827;28;97137;-55
2023/09/15 05:10:50;;;;;;;1.00;0.93;;;;;;;11.27;62.54;101949.81;4898370;28;101532;-55
2023/09/15 05:13:15;;;;;;;1.07;1.00;;;;;;;11.27;62.66;101954.56;4898060;28;97348;-54
2023/09/15 05:15:41;;;;;;;0.70;0.70;;;;;;;11.28;62.57;101962.38;4898534;28;98759;-54
2023/09/15 05:18:06;;;;;;;1.37;0.83;;;;;;;11.29;62.79;101952.13;4900102;28;96803;-55
2023/09/15 05:20:32;;;;;;;0.67;0.67;;;;;;;11.29;62.50;101952.88;4898171;28;97787;-55
2023/09/15 05:22:58;;;;;;;4.17;1.37;;;;;;;11.30;62.63;101950.88;4900171;28;97859;-55
2023/09/15 05:25:23;;;;;;;1.83;1.00;;;;;;;11.31;62.74;101944.91;4898957;28;98761;-54
2023/09/15 05:27:48;;;;;;;1.00;1.00;;;;;;;11.33;62.62;101947.22;4898805;28;97162;-54
2023/09/15 05:30:15;;;;;;;1.80;1.03;;;;;;;11.35;62.65;101961.28;4900518;28;97274;-55
2023/09/15 05:32:41;;;;;;;1.00;0.90;;;;;;;11.37;62.64;101941.50;4898968;28;97275;-54
2023/09/15 05:35:08;;;;;;;1.83;1.00;;;;;;;11.39;62.90;101942.59;4899706;28;96789;-54
2023/09/15 05:37:34;;;;;;;1.03;0.93;;;;;;;11.41;62.75;101937.38;4890007;28;97525;-55
2023/09/15 05:39:59;;;;;;;5.13;0.93;;;;;;;11.44;62.69;101941.97;4897698;28;98297;-55
2023/09/15 05:42:24;;;;;;;1.40;1.10;;;;;;;11.47;62.65;101940.22;4897549;28;103980;-55
2023/09/15 05:44:50;;;;;;;2.33;0.93;;;;;;;11.51;62.88;101940.84;4899161;28;107322;-55
2023/09/15 05:47:15;;;;;;;2.63;0.80;;;;;;;11.54;62.73;101950.94;4899496;28;96936;-54
2023/09/15 05:49:40;;;;;;;1.97;0.80;;;;;;;11.57;62.88;101953.53;4898553;28;97077;-55
2023/09/15 05:52:06;;;;;;;1.20;0.93;;;;;;;11.58;62.80;101954.25;4899542;28;109803;-55
2023/09/15 05:54:31;;;;;;;1.07;0.97;;;;;;;11.61;62.73;101953.34;4899211;28;98257;-55
2023/09/15 05:56:57;;;;;;;1.43;1.33;;;;;;;11.61;62.96;101954.13;4899824;28;97030;-54
2023/09/15 05:59:22;;;;;;;1.07;0.97;;;;;;;11.63;63.01;101954.41;4899654;28;97162;-54
2023/09/15 06:01:47;;;;;;;0.80;0.70;;;;;;;11.65;63.12;101951.94;4898271;28;96612;-55
2023/09/15 06:04:15;;;;;;;1.17;1.07;;;;;;;11.70;62.87;101962.38;4898583;28;108732;-55
2023/09/15 06:06:41;;;;;;;3.60;0.90;;;;;;;11.72;62.97;101957.16;4898101;28;96938;-55
2023/09/15 06:09:06;;;;;;;1.73;0.80;;;;;;;11.76;63.20;101965.22;4899813;28;96801;-54
2023/09/15 06:11:32;;;;;;;3.30;0.90;;;;;;;11.82;63.23;101961.38;4898199;28;104121;-54
2023/09/15 06:13:57;;;;;;;1.13;1.03;;;;;;;11.86;63.10;101967.47;4896461;28;97618;-55
2023/09/15 06:16:23;;;;;;;2.63;1.17;;;;;;;11.90;63.00;101962.53;4900902;28;97362;-54
2023/09/15 06:18:48;;;;;;;1.60;1.20;;;;;;;11.94;63.07;101965.91;4900134;28;96815;-54
2023/09/15 06:21:14;;;;;;;1.40;1.00;;;;;;;11.97;63.19;101967.69;4899571;28;97245;-54
2023/09/15 06:23:39;;;;;;;0.93;0.93;;;;;;;12.00;63.09;101957.72;4896121;28;97718;-54
2023/09/15 06:26:04;;;;;;;7.10;1.30;;;;;;;12.05;63.16;101962.59;4899826;28;97257;-54
2023/09/15 06:28:30;;;;;;;1.80;0.80;;;;;;;12.07;63.08;101971.19;4898172;28;97055;-54
2023/09/15 06:30:55;;;;;;;4.40;1.27;;;;;;;12.12;63.34;101972.53;4898165;28;96720;-54
2023/09/15 06:33:21;;;;;;;0.70;0.70;;;;;;;12.13;63.14;101974.81;4899621;28;102360;-54
2023/09/15 06:35:47;;;;;;;1.57;1.00;;;;;;;12.15;63.43;101975.09;4898278;28;97253;-55
2023/09/15 06:38:12;;;;;;;2.20;1.13;;;;;;;12.20;63.48;101966.19;4899411;28;96669;-55
2023/09/15 06:40:38;;;;;;;1.10;0.90;;;;;;;12.22;63.59;101969.22;4895656;28;96948;-55
2023/09/15 06:43:06;;;;;;;2.70;1.57;;;;;;;12.25;63.54;101970.28;4898693;28;97220;-54
2023/09/15 06:45:31;;;;;;;3.07;1.60;;;;;;;12.32;63.74;101958.88;4899565;28;97391;-55
2023/09/15 06:48:01;;;;;;;5.30;2.43;;;;;;;12.39;63.71;101956.50;4898041;28;97069;-55
2023/09/15 06:50:26;;;;;;;6.47;2.63;;;;;;;12.44;63.76;101969.66;4896664;28;97927;-55
2023/09/15 06:52:53;;;;;;;5.07;1.80;;;;;;;12.48;63.62;101961.19;4895883;28;97222;-55
2023/09/15 06:55:18;;;;;;;4.20;1.87;;;;;;;12.54;63.89;101956.53;4901807;28;97418;-54
2023/09/15 06:57:43;;;;;;;4.20;1.47;;;;;;;12.60;64.04;101958.16;4901707;28;97061;-54
2023/09/15 07:00:09;;;;;;;3.37;1.40;;;;;;;12.68;64.00;101961.31;4900341;28;97816;-55
2023/09/15 07:02:34;;;;;;;1.67;1.17;;;;;;;12.73;64.08;101958.63;4901546;28;99100;-55
2023/09/15 07:05:00;;;;;;;0.90;0.90;;;;;;;12.81;63.93;101964.56;4901075;28;97272;-54
2023/09/15 07:07:25;;;;;;;1.53;1.20;;;;;;;12.91;64.28;101960.47;4900986;28;97199;-54
2023/09/15 07:09:50;;;;;;;1.50;1.13;;;;;;;13.00;64.17;101954.06;4899202;28;97205;-55
2023/09/15 07:12:16;;;;;;;2.87;1.23;;;;;;;13.08;64.32;101952.50;4902150;28;97707;-54
2023/09/15 07:14:42;;;;;;;6.03;1.70;;;;;;;13.15;64.23;101946.59;4899281;28;97263;-54
2023/09/15 07:17:07;;;;;;;2.47;1.80;;;;;;;13.21;64.40;101945.44;4902083;28;97630;-54
2023/09/15 07:19:32;;;;;;;3.00;1.47;;;;;;;13.28;64.60;101941.50;4899955;28;104039;-55
2023/09/15 07:21:58;;;;;;;2.90;1.63;;;;;;;13.36;64.59;101943.41;4901311;28;97057;-55
2023/09/15 07:24:23;;;;;;;3.10;1.60;;;;;;;13.44;64.48;101946.50;4899820;28;97514;-55
2023/09/15 07:26:48;;;;;;;2.23;1.40;;;;;;;13.53;64.65;101947.16;4902340;28;97710;-55
2023/09/15 07:29:14;;;;;;;1.80;1.53;;;;;;;13.59;64.75;101940.94;4899826;28;97377;-55
2023/09/15 07:31:42;;;;;;;2.20;1.40;;;;;;;13.69;64.87;101945.88;4899516;28;96796;-55
2023/09/15 07:34:10;;;;;;;2.10;1.40;;;;;;;13.80;64.81;101937.72;4899324;28;97239;-54
2023/09/15 07:36:36;;;;;;;5.33;1.57;;;;;;;13.91;64.79;101935.06;4901690;28;96876;-55
2023/09/15 07:39:02;;;;;;;2.10;1.43;;;;;;;14.03;64.99;101935.97;4901429;28;97947;-54
2023/09/15 07:41:27;;;;;;;1.63;1.30;;;;;;;14.11;64.93;101939.84;4902006;28;97318;-54
2023/09/15 07:43:56;;;;;;;2.50;1.50;;;;;;;14.22;65.01;101943.50;4900505;28;97496;-54
2023/09/15 07:46:21;;;;;;;4.00;1.37;;;;;;;14.33;65.02;101936.63;4897107;28;97600;-54
2023/09/15 07:48:47;;;;;;;3.97;2.23;;;;;;;14.44;64.94;101934.72;4902620;28;108077;-54
2023/09/15 07:51:13;;;;;;;2.80;1.30;;;;;;;14.53;65.10;101940.09;4900480;28;97871;-54
2023/09/15 07:53:39;;;;;;;1.63;1.53;;;;;;;14.64;65.34;101931.91;4899860;28;96829;-54
2023/09/15 07:56:04;;;;;;;1.70;1.60;;;;;;;14.77;65.31;101931.50;4900994;28;97029;-54
2023/09/15 07:58:29;;;;;;;1.37;1.27;;;;;;;14.89;65.35;101933.91;4903794;28;98238;-54
2023/09/15 08:00:57;;;;;;;3.87;1.47;;;;;;;14.99;65.44;101926.16;4899843;28;104739;-55
2023/09/15 08:03:22;;;;;;;3.60;1.33;;;;;;;15.12;65.38;101925.75;4895169;28;97186;-55
2023/09/15 08:05:47;;;;;;;6.40;1.60;;;;;;;15.23;65.33;101923.81;4899164;28;97424;-54
2023/09/15 08:08:13;;;;;;;1.83;1.07;;;;;;;15.33;65.39;101927.91;4900800;28;98196;-55
2023/09/15 08:10:38;;;;;;;3.03;1.80;;;;;;;15.45;65.43;101923.22;4901465;28;96603;-55
2023/09/15 08:13:03;;;;;;;4.30;1.90;;;;;;;15.56;65.29;101924.06;4902528;28;96935;-55
2023/09/15 08:15:29;;;;;;;1.60;1.30;;;;;;;15.66;65.50;101933.69;4900334;28;98134;-55
2023/09/15 08:17:54;;;;;;;1.53;1.33;;;;;;;15.79;65.42;101919.41;4901912;28;98427;-55
2023/09/15 08:20:20;;;;;;;1.53;1.43;;;;;;;15.94;65.35;101922.75;4900627;28;97429;-55
2023/09/15 08:22:45;;;;;;;3.80;1.70;;;;;;;16.10;65.24;101924.81;4903410;28;97348;-55
2023/09/15 08:25:11;;;;;;;1.60;1.50;;;;;;;16.24;65.36;101915.50;4899480;28;96949;-55
2023/09/15 08:27:40;;;;;;;5.90;1.67;;;;;;;16.41;65.17;101913.53;4899128;28;97343;-54
2023/09/15 08:30:08;;;;;;;2.50;1.40;;;;;;;16.58;65.17;101908.03;4899588;28;97180;-55
2023/09/15 08:32:34;;;;;;;3.37;1.50;;;;;;;16.76;65.12;101915.09;4900729;28;96997;-55
2023/09/15 08:34:59;;;;;;;3.43;1.60;;;;;;;16.91;65.08;101910.81;4902348;28;97338;-55
2023/09/15 08:37:25;;;;;;;1.87;1.60;;;;;;;17.09;64.85;101912.31;4901083;28;97967;-55
2023/09/15 08:39:50;;;;;;;3.90;2.13;;;;;;;17.28;64.67;101915.34;4899345;28;97187;-54
2023/09/15 08:42:23;;;;;;;2.07;1.93;;;;;;;17.47;64.59;101905.94;4905847;28;109847;-55
2023/09/15 08:44:49;;;;;;;2.00;1.80;;;;;;;17.65;64.32;101913.75;4898479;28;96819;-54
2023/09/15 08:47:17;;;;;;;3.50;1.73;;;;;;;17.86;64.19;101911.41;4896326;28;97917;-55
2023/09/15 08:49:43;;;;;;;3.37;1.90;;;;;;;18.02;63.63;101912.59;4903439;28;97172;-55
2023/09/15 08:52:09;;;;;;;3.17;1.63;;;;;;;18.20;63.67;101912.00;4902418;28;97504;-55
2023/09/15 08:54:36;;;;;;;3.27;1.70;;;;;;;18.38;63.50;101923.28;4894418;28;99281;-54
2023/09/15 08:57:01;;;;;;;2.63;1.60;;;;;;;18.58;63.58;101913.81;4899422;28;96765;-55
2023/09/15 08:59:27;;;;;;;1.70;1.60;;;;;;;18.73;63.43;101917.00;4905544;28;97276;-55
2023/09/15 09:01:53;;;;;;;2.93;1.60;;;;;;;18.87;63.16;101923.50;4899721;28;97382;-55
2023/09/15 09:04:18;;;;;;;4.87;1.80;;;;;;;19.02;63.04;101910.69;4899597;28;96959;-55
2023/09/15 09:06:45;;;;;;;1.93;1.70;;;;;;;19.18;62.68;101909.00;4897824;28;106996;-56
2023/09/15 09:09:11;;;;;;;2.77;1.43;;;;;;;19.34;62.59;101897.72;4893697;28;97432;-56
2023/09/15 09:11:37;;;;;;;2.20;1.50;;;;;;;19.53;62.15;101906.13;4897654;28;96799;-55
2023/09/15 09:14:04;;;;;;;3.20;2.30;;;;;;;19.83;61.76;101911.63;4880382;28;97512;-55
2023/09/15 09:16:30;;;;;;;2.13;1.70;;;;;;;19.86;62.01;101907.75;4893261;28;97938;-56
2023/09/15 09:19:00;;;;;;;1.77;1.57;;;;;;;19.92;62.12;101895.22;4893957;28;97441;-55
2023/09/15 09:21:31;;;;;;;2.00;1.80;;;;;;;20.00;61.70;101898.19;4898610;28;97226;-56
2023/09/15 09:23:57;;;;;;;1.30;1.20;;;;;;;20.04;61.59;101893.81;4893813;28;97315;-56
2023/09/15 09:26:23;;;;;;;1.93;1.23;;;;;;;20.17;61.29;101895.91;4897830;28;97036;-56
2023/09/15 09:28:49;;;;;;;2.30;1.87;;;;;;;20.28;60.99;101895.78;4893701;28;97369;-56
2023/09/15 09:31:15;;;;;;;1.23;1.10;;;;;;;20.44;60.84;101885.66;4895210;28;97171;-55
2023/09/15 09:33:43;;;;;;;1.87;1.43;;;;;;;20.56;60.52;101882.13;4894919;28;97209;-55
2023/09/15 09:36:13;;;;;;;2.23;2.00;;;;;;;20.69;60.03;101884.97;4893935;28;96893;-56
2023/09/15 09:38:44;;;;;;;3.07;1.97;;;;;;;20.75;60.11;101891.22;4898451;28;97225;-55
2023/09/15 09:41:10;;;;;;;2.20;1.47;;;;;;;20.83;60.00;101886.53;4895030;28;96740;-55
2023/09/15 09:43:38;;;;;;;2.43;2.10;;;;;;;20.91;59.75;101879.00;4891332;28;97502;-56
2023/09/15 09:46:04;;;;;;;1.93;1.60;;;;;;;21.02;59.88;101874.50;4891239;28;97515;-56
2023/09/15 09:48:32;;;;;;;2.40;1.10;;;;;;;21.13;59.65;101874.31;4897528;28;97359;-56
2023/09/15 09:50:57;;;;;;;1.63;1.53;;;;;;;21.21;59.38;101867.56;4896681;28;97324;-55
2023/09/15 09:53:32;;;;;;;1.70;1.40;;;;;;;21.30;58.77;101877.56;4891899;28;97154;-56
2023/09/15 09:56:01;;;;;;;1.60;1.40;;;;;;;21.36;59.23;101872.63;4898199;28;97771;-55
2023/09/15 09:58:27;;;;;;;2.03;1.50;;;;;;;21.39;59.18;101863.13;4899829;28;97601;-56
2023/09/15 10:00:53;;;;;;;1.97;1.63;;;;;;;21.42;59.08;101867.66;4900020;28;96697;-56
2023/09/15 10:03:20;;;;;;;1.90;1.50;;;;;;;21.47;58.94;101861.22;4899655;28;96762;-56
2023/09/15 10:05:47;;;;;;;2.53;1.40;;;;;;;21.56;58.70;101857.94;4898279;28;97787;-56
2023/09/15 10:08:14;;;;;;;1.90;1.70;;;;;;;21.61;58.74;101857.09;4898889;28;97105;-56
2023/09/15 10:10:49;;;;;;;1.83;1.63;;;;;;;21.65;58.38;101857.53;4902157;28;96719;-56
2023/09/15 10:13:15;;;;;;;2.80;1.43;;;;;;;21.72;58.41;101851.25;4898217;28;97143;-55
2023/09/15 10:15:41;;;;;;;3.33;2.00;;;;;;;21.81;58.31;101850.06;4900678;28;98935;-56
2023/09/15 10:18:12;;;;;;;1.43;1.33;;;;;;;21.89;58.26;101848.88;4901116;28;97799;-56
2023/09/15 10:20:43;;;;;;;6.80;1.80;;;;;;;21.95;57.45;101849.50;4900837;28;97274;-57
2023/09/15 10:23:11;;;;;;;3.53;1.40;;;;;;;22.01;57.72;101850.16;4900436;28;97378;-56
2023/09/15 10:25:44;;;;;;;3.93;1.30;;;;;;;22.05;56.50;101836.56;4899704;28;97118;-56
2023/09/15 10:28:11;;;;;;;4.67;2.10;;;;;;;22.11;57.43;101842.00;4897824;28;100318;-56
2023/09/15 10:30:38;;;;;;;3.97;1.50;;;;;;;22.16;57.22;101838.34;4902753;28;96708;-56
2023/09/15 10:33:08;;;;;;;1.97;1.67;;;;;;;22.23;56.81;101841.22;4901143;28;96646;-56
2023/09/15 10:35:33;;;;;;;1.83;1.73;;;;;;;22.26;56.94;101831.72;4900406;28;97934;-56
2023/09/15 10:38:03;;;;;;;2.50;1.70;;;;;;;22.34;56.79;101838.13;4900954;28;96815;-56
2023/09/15 10:41:05;;;;;;;1.70;1.60;;;;;;;22.42;55.19;101829.03;4898857;28;96666;-58
2023/09/15 10:43:31;;;;;;;1.43;1.33;;;;;;;22.52;56.52;101818.88;4920943;28;97139;-56
2023/09/15 10:45:59;;;;;;;2.17;1.70;;;;;;;22.63;56.23;101821.44;4899840;28;97368;-57
2023/09/15 10:48:37;;;;;;;4.10;1.77;;;;;;;22.72;54.59;101830.09;4902417;28;96956;-57
2023/09/15 10:51:06;;;;;;;3.27;1.57;;;;;;;22.82;55.42;101824.75;4903025;28;97442;-56
2023/09/15 10:53:42;;;;;;;4.20;1.93;;;;;;;22.92;54.85;101825.75;4898890;28;97307;-57
2023/09/15 10:56:07;;;;;;;1.73;1.60;;;;;;;23.01;55.64;101823.19;4899111;28;97055;-57
2023/09/15 10:58:33;;;;;;;2.97;1.77;;;;;;;23.09;55.40;101820.44;4902800;28;97621;-57
2023/09/15 11:00:58;;;;;;;3.17;1.63;;;;;;;23.18;55.01;101810.75;4898919;28;97220;-57
2023/09/15 11:03:26;;;;;;;1.53;1.30;;;;;;;23.31;54.99;101810.63;4900468;28;97157;-56
2023/09/15 11:05:52;;;;;;;1.70;1.60;;;;;;;23.41;54.98;101803.22;4901246;28;96902;-56
2023/09/15 11:08:18;;;;;;;5.23;1.80;;;;;;;23.51;54.78;101804.19;4901729;28;97235;-57
2023/09/15 11:10:43;;;;;;;4.37;1.70;;;;;;;23.57;54.55;101799.91;4902497;28;97136;-56
2023/09/15 11:13:09;;;;;;;2.20;1.60;;;;;;;23.63;54.00;101806.13;4903791;28;97027;-57
2023/09/15 11:15:35;;;;;;;1.87;1.77;;;;;;;23.71;54.01;101806.91;4901206;28;96788;-56
2023/09/15 11:18:01;;;;;;;1.77;1.67;;;;;;;23.79;53.75;101799.25;4901391;28;97153;-56
2023/09/15 11:20:27;;;;;;;2.33;1.67;;;;;;;23.85;53.46;101799.09;4899637;28;96972;-57
2023/09/15 11:22:56;;;;;;;3.00;1.73;;;;;;;23.89;53.03;101799.47;4901757;28;96871;-57